createdAt,value
2023-01-25T00:00:13.551Z,103639.88
2023-01-25T00:05:16.480Z,103625.06
2023-01-25T00:10:19.977Z,103625.06
2023-01-25T00:15:24.570Z,103618.81
2023-01-25T00:20:27.832Z,103616.63
2023-01-25T00:25:30.657Z,103621.78
2023-01-25T00:30:34.874Z,103628.22
2023-01-25T00:35:37.644Z,103615.38
2023-01-25T00:40:40.419Z,103602.22
2023-01-25T00:45:44.604Z,103606.56
2023-01-25T00:50:47.498Z,103591.84
2023-01-25T00:55:53.214Z,103582.59
2023-01-25T01:00:57.852Z,103586.25
2023-01-25T01:06:02.357Z,103587.31
2023-01-25T01:11:07.126Z,103583.25
2023-01-25T01:16:13.759Z,103572.84
2023-01-25T01:21:16.644Z,103569.56
2023-01-25T01:26:20.472Z,103571.97
2023-01-25T01:31:25.270Z,103490.53
2023-01-25T01:36:40.886Z,103569.06
2023-01-25T01:41:43.809Z,103560.31
2023-01-25T01:46:54.334Z,103566.81
2023-01-25T01:52:02.091Z,103568.31
2023-01-25T01:57:11.476Z,103567.03
2023-01-25T02:02:16.095Z,103559.88
2023-01-25T02:07:22.682Z,103549.66
2023-01-25T02:12:26.567Z,103554.09
2023-01-25T02:17:32.496Z,103528.31
2023-01-25T02:22:40.878Z,103552.47
2023-01-25T02:27:47.468Z,103545.38
2023-01-25T02:32:50.456Z,103545.56
2023-01-25T02:37:53.420Z,103540.00
2023-01-25T02:42:57.692Z,103528.13
2023-01-25T02:48:00.721Z,103530.13
2023-01-25T02:53:03.602Z,103522.75
2023-01-25T02:58:11.982Z,103527.28
2023-01-25T03:03:15.858Z,103514.44
2023-01-25T03:08:18.821Z,103510.88
2023-01-25T03:13:26.088Z,103508.22
2023-01-25T03:18:29.192Z,103509.09
2023-01-25T03:23:32.194Z,103505.66
2023-01-25T03:28:37.008Z,103490.56
2023-01-25T03:33:40.448Z,103489.97
2023-01-25T03:38:44.027Z,103483.25
2023-01-25T03:43:49.149Z,103463.38
2023-01-25T03:48:53.973Z,103463.63
2023-01-25T03:53:56.867Z,103458.75
2023-01-25T03:59:01.725Z,103456.88
2023-01-25T04:04:04.691Z,103456.09
2023-01-25T04:09:09.537Z,103444.03
2023-01-25T04:14:25.523Z,103442.50
2023-01-25T04:19:38.560Z,103433.03
2023-01-25T04:24:48.267Z,103424.50
2023-01-25T04:29:52.560Z,103415.91
2023-01-25T04:34:56.965Z,103420.97
2023-01-25T04:40:04.174Z,103418.66
2023-01-25T04:45:13.630Z,103410.84
2023-01-25T04:50:17.532Z,103410.03
2023-01-25T04:55:21.601Z,103414.06
2023-01-25T05:00:29.085Z,103400.94
2023-01-25T05:05:35.529Z,103402.16
2023-01-25T05:10:42.688Z,103405.63
2023-01-25T05:16:13.630Z,103402.63
2023-01-25T05:21:30.549Z,103396.59
2023-01-25T05:26:51.320Z,103407.69
2023-01-25T05:31:56.041Z,103399.75
2023-01-25T05:36:58.969Z,103398.06
2023-01-25T05:42:02.417Z,103404.91
2023-01-25T05:47:06.764Z,103415.97
2023-01-25T05:52:13.466Z,103420.78
2023-01-25T05:57:17.207Z,103417.56
2023-01-25T06:02:22.310Z,103419.06
2023-01-25T06:07:25.377Z,103419.34
2023-01-25T06:12:29.475Z,103416.09
2023-01-25T06:17:35.396Z,103407.59
2023-01-25T06:22:44.251Z,103403.25
2023-01-25T06:27:47.223Z,103403.41
2023-01-25T06:32:51.426Z,103402.22
2023-01-25T06:37:56.423Z,103397.22
2023-01-25T06:43:07.215Z,103384.69
2023-01-25T06:48:12.871Z,103378.75
2023-01-25T06:53:16.520Z,103374.50
2023-01-25T06:58:19.424Z,103373.06
2023-01-25T07:03:23.672Z,103375.56
2023-01-25T07:08:26.592Z,103385.03
2023-01-25T07:13:31.071Z,103379.47
2023-01-25T07:18:37.510Z,103370.16
2023-01-25T07:23:41.585Z,103359.25
2023-01-25T07:28:44.523Z,103338.19
2023-01-25T07:33:50.475Z,103303.06
2023-01-25T07:38:54.681Z,103333.28
2023-01-25T07:43:57.715Z,103336.03
2023-01-25T07:49:14.777Z,103330.91
2023-01-25T07:54:17.649Z,103334.44
2023-01-25T07:59:22.490Z,103332.56
2023-01-25T08:04:26.812Z,103338.50
2023-01-25T08:09:29.813Z,103330.19
2023-01-25T08:14:32.861Z,103330.09
2023-01-25T08:19:37.082Z,103334.88
2023-01-25T08:24:40.108Z,103330.91
2023-01-25T08:29:43.076Z,103312.19
2023-01-25T08:34:47.290Z,103314.25
2023-01-25T08:39:50.300Z,103312.66
2023-01-25T08:44:53.190Z,103301.72
2023-01-25T08:49:57.354Z,103309.53
2023-01-25T08:55:00.875Z,103292.50
2023-01-25T09:00:04.332Z,103291.97
2023-01-25T09:05:09.633Z,103286.84
2023-01-25T09:10:12.720Z,103290.78
2023-01-25T09:15:15.740Z,103287.31
2023-01-25T09:20:20.274Z,103281.13
2023-01-25T09:25:23.391Z,103270.22
2023-01-25T09:30:37.278Z,103269.94
2023-01-25T09:35:50.176Z,103283.22
2023-01-25T09:41:02.692Z,103270.03
2023-01-25T09:46:13.816Z,103261.34
2023-01-25T09:51:56.164Z,103250.31
2023-01-25T09:56:59.804Z,103241.72
2023-01-25T10:02:04.733Z,103233.72
2023-01-25T10:07:20.338Z,103226.69
2023-01-25T10:12:24.697Z,103219.78
2023-01-25T10:17:33.152Z,103218.84
2023-01-25T10:22:44.039Z,103218.44
2023-01-25T10:27:55.543Z,103199.63
2023-01-25T10:33:01.421Z,103200.91
2023-01-25T10:38:11.108Z,103201.16
2023-01-25T10:43:18.304Z,103179.84
2023-01-25T10:48:26.713Z,103176.53
2023-01-25T10:53:34.785Z,103174.34
2023-01-25T10:58:39.461Z,103176.81
2023-01-25T11:03:44.743Z,103171.72
2023-01-25T11:08:50.512Z,103143.25
2023-01-25T11:13:55.546Z,103151.69
2023-01-25T11:18:59.389Z,103137.78
2023-01-25T11:24:06.432Z,103132.44
2023-01-25T11:29:14.479Z,103123.63
2023-01-25T11:34:19.397Z,103108.28
2023-01-25T11:39:35.484Z,103090.63
2023-01-25T11:45:02.654Z,103080.59
2023-01-25T11:50:09.666Z,103059.91
2023-01-25T11:55:23.945Z,103044.59
2023-01-25T12:00:53.244Z,103033.84
2023-01-25T12:06:01.558Z,103028.56
2023-01-25T12:11:09.554Z,102998.16
2023-01-25T12:16:33.527Z,103003.75
2023-01-25T12:21:50.611Z,102998.91
2023-01-25T12:27:02.080Z,102986.03
2023-01-25T12:32:08.689Z,102972.75
2023-01-25T12:37:15.956Z,102968.00
2023-01-25T12:42:22.649Z,102962.84
2023-01-25T12:47:29.805Z,102958.00
2023-01-25T12:52:35.173Z,102943.47
2023-01-25T12:57:45.248Z,102941.41
2023-01-25T13:03:01.788Z,102931.53
2023-01-25T13:08:23.070Z,102916.47
2023-01-25T13:13:30.922Z,102924.34
2023-01-25T13:18:40.525Z,102919.72
2023-01-25T13:23:47.204Z,102909.47
2023-01-25T13:28:52.738Z,102902.69
2023-01-25T13:33:55.625Z,102903.63
2023-01-25T13:38:58.480Z,102891.50
2023-01-25T13:44:31.877Z,102889.56
2023-01-25T13:49:40.928Z,102887.72
2023-01-25T13:54:45.042Z,102878.25
2023-01-25T13:59:52.273Z,102858.91
2023-01-25T14:04:55.721Z,102859.91
2023-01-25T14:09:59.607Z,102864.75
2023-01-25T14:15:18.730Z,102852.88
2023-01-25T14:20:23.138Z,102851.06
2023-01-25T14:25:27.060Z,102844.94
2023-01-25T14:30:33.595Z,102837.28
2023-01-25T14:35:43.261Z,102830.91
2023-01-25T14:40:55.715Z,102805.16
2023-01-25T14:45:59.968Z,102784.41
2023-01-25T14:51:17.213Z,102786.09
2023-01-25T14:56:29.121Z,102779.38
2023-01-25T15:01:38.040Z,102784.69
2023-01-25T15:06:48.575Z,102792.88
2023-01-25T15:12:02.351Z,102799.00
2023-01-25T15:17:06.511Z,102810.22
2023-01-25T15:22:09.622Z,102807.28
2023-01-25T15:27:12.953Z,102798.59
2023-01-25T15:32:20.740Z,102794.19
2023-01-25T15:37:23.575Z,102795.16
2023-01-25T15:42:28.889Z,102804.34
2023-01-25T15:47:33.326Z,102780.22
2023-01-25T15:52:36.119Z,102771.81
2023-01-25T15:57:38.978Z,102750.13
2023-01-25T16:02:43.318Z,102736.94
2023-01-25T16:07:46.971Z,102733.22
2023-01-25T16:12:50.063Z,102730.63
2023-01-25T16:17:54.322Z,102712.34
2023-01-25T16:22:57.216Z,102704.56
2023-01-25T16:28:00.081Z,102686.13
2023-01-25T16:33:04.404Z,102666.19
2023-01-25T16:38:07.392Z,102651.69
2023-01-25T16:43:10.260Z,102646.66
2023-01-25T16:48:16.374Z,102623.56
2023-01-25T16:53:19.476Z,102615.41
2023-01-25T16:58:22.292Z,102601.44
2023-01-25T17:03:26.528Z,102598.88
2023-01-25T17:08:29.409Z,102597.41
2023-01-25T17:13:32.305Z,102586.47
2023-01-25T17:18:36.534Z,102595.53
2023-01-25T17:23:39.581Z,102581.16
2023-01-25T17:28:42.798Z,102578.63
2023-01-25T17:33:47.604Z,102565.59
2023-01-25T17:38:50.571Z,102559.81
2023-01-25T17:43:53.808Z,102556.47
2023-01-25T17:48:58.659Z,102544.50
2023-01-25T17:54:02.077Z,102532.31
2023-01-25T17:59:08.709Z,102528.13
2023-01-25T18:04:17.407Z,102531.56
2023-01-25T18:09:20.515Z,102534.84
2023-01-25T18:14:23.334Z,102527.41
2023-01-25T18:19:31.145Z,102524.09
2023-01-25T18:24:35.146Z,102513.56
2023-01-25T18:29:56.653Z,102497.31
2023-01-25T18:35:01.000Z,102503.25
2023-01-25T18:40:03.815Z,102477.84
2023-01-25T18:45:09.249Z,102486.06
2023-01-25T18:50:16.293Z,102474.16
2023-01-25T18:55:19.328Z,102474.97
2023-01-25T19:00:22.249Z,102475.78
2023-01-25T19:05:26.967Z,102476.53
2023-01-25T19:10:29.759Z,102476.66
2023-01-25T19:15:34.485Z,102469.59
2023-01-25T19:20:38.740Z,102460.34
2023-01-25T19:25:41.575Z,102447.09
2023-01-25T19:30:44.582Z,102458.25
2023-01-25T19:35:48.836Z,102453.69
2023-01-25T19:40:51.684Z,102449.38
2023-01-25T19:45:54.488Z,102439.13
2023-01-25T19:51:08.088Z,102442.66
2023-01-25T19:56:11.010Z,102446.16
2023-01-25T20:01:16.242Z,102439.38
2023-01-25T20:06:21.466Z,102421.19
2023-01-25T20:11:25.563Z,102425.69
2023-01-25T20:16:30.475Z,102428.22
2023-01-25T20:21:38.053Z,102417.88
2023-01-25T20:26:43.096Z,102404.25
2023-01-25T20:31:47.117Z,102402.44
2023-01-25T20:36:51.974Z,102399.75
2023-01-25T20:41:56.674Z,102390.22
2023-01-25T20:46:59.699Z,102393.72
2023-01-25T20:52:05.165Z,102332.41
2023-01-25T20:57:08.095Z,102369.06
2023-01-25T21:02:11.623Z,102352.47
2023-01-25T21:07:15.853Z,102371.94
2023-01-25T21:12:18.716Z,102373.63
2023-01-25T21:17:21.532Z,102369.47
2023-01-25T21:22:25.850Z,102359.16
2023-01-25T21:27:29.610Z,102356.59
2023-01-25T21:32:32.425Z,102349.81
2023-01-25T21:37:36.558Z,102343.91
2023-01-25T21:42:39.353Z,102340.47
2023-01-25T21:47:42.172Z,102336.19
2023-01-25T21:52:46.449Z,102309.53
2023-01-25T21:57:51.680Z,102291.22
2023-01-25T22:02:56.411Z,102343.88
2023-01-25T22:08:00.878Z,102432.03
2023-01-25T22:13:03.763Z,102440.16
2023-01-25T22:18:06.693Z,102486.91
2023-01-25T22:23:10.931Z,102518.25
2023-01-25T22:28:15.204Z,102521.63
2023-01-25T22:33:18.563Z,102502.81
2023-01-25T22:38:22.756Z,102422.19
2023-01-25T22:43:25.618Z,102188.97
2023-01-25T22:48:28.911Z,102090.94
2023-01-25T22:53:33.588Z,102066.78
2023-01-25T22:58:37.238Z,102062.00
2023-01-25T23:03:40.094Z,102061.69
2023-01-25T23:08:44.558Z,102040.47
2023-01-25T23:14:07.690Z,102033.38
2023-01-25T23:19:10.627Z,102024.13
2023-01-25T23:24:14.855Z,102034.78
2023-01-25T23:29:17.692Z,101976.47
2023-01-25T23:34:20.474Z,101932.31
2023-01-25T23:39:24.701Z,101992.59
2023-01-25T23:44:27.946Z,102014.06
2023-01-25T23:49:30.846Z,101975.78
2023-01-25T23:54:35.108Z,101964.53
2023-01-25T23:59:37.974Z,101964.22
